Weather observations for the past three days for
Zapata, TX
Imperial (Metric)
Date Time (cdt) Wind (mph) Vis. (mi.) Weather Sky Cond. Temperature (ºF) Relative Humidity Wind Chill (°F) Heat Index (°F) Pressure Precipitation (in)
Air Dwpt 6 hour altimeter (in) sea level (mb) 1 hr 3 hr 6 hr
Max. Min.
10 12:15 SE 6 10.00 Partly Cloudy SCT023 87.1 74.7 67% 96 29.88 0.0
10 11:55 SE 7 7.00 Partly Cloudy SCT017 86 75 70% 95 29.87 0.0
10 11:35 E 7 10.00 Partly Cloudy SCT015 84.7 75 73% 93 29.88 0.0
10 11:15 E 7 10.00 Overcast OVC013 83.8 74.7 74% 91 29.88 0.0
10 10:55 E 6 7.00 Overcast OVC013 81.7 74.3 78% 88 29.88 0.0
10 10:35 E 8 7.00 Overcast OVC011 80.6 74.3 81% 86 29.89 0.0
10 10:15 E 6 7.00 Overcast OVC009 80.6 74.3 81% 86 29.89 0.0
10 09:55 E 6 7.00 Overcast OVC007 79 74.3 86% 83 29.88 0.0
10 09:35 SE 6 5.00 Fog/Mist OVC007 77.4 74.5 91% 79 29.88 0.0
10 09:15 E 6 5.00 Fog/Mist OVC005 76.5 74.3 93% 77 29.88 0.0
10 08:55 E 7 5.00 Fog/Mist OVC005 75.9 74.3 95% 75 29.87 0.0
10 08:35 SE 6 5.00 Fog/Mist OVC003 75.2 74.3 97% 73 29.87 0.0
10 07:55 E 7 3.00 Fog/Mist OVC003 73.9 73.6 99% 29.85 0.0
10 07:35 E 3 3.00 Fog/Mist OVC003 73.6 73.4 99% 29.85 0.0
10 07:15 E 3 3.00 Fog/Mist SCT003 73.4 72.7 98% 29.85 0.0
10 06:55 Calm 4.00 Fog/Mist CLR 73.2 72.7 76.8 73 98% 29.84 0.0
10 06:35 E 3 5.00 Fog/Mist CLR 73.2 72.7 98% 29.84 0.0
10 06:15 E 5 5.00 Fog/Mist CLR 73 72.5 98% 29.84 0.0
10 05:55 NE 3 5.00 Fog/Mist CLR 73.4 72.7 98% 29.83 0.0
10 05:35 NE 3 5.00 Fog/Mist CLR 73.9 72.9 96% 29.83 0.0
10 05:15 Calm 7.00 Fair CLR 74.3 73 96% 29.83 0.0
10 04:55 SE 3 7.00 Partly Cloudy SCT050 74.5 72.9 95% 29.84 0.0
10 04:35 SE 3 7.00 Partly Cloudy SCT050 74.7 72.7 94% 29.84 0.0
10 04:15 SE 3 7.00 Overcast OVC050 75.2 72.5 91% 74 29.84 0.0
10 03:55 SE 3 10.00 Overcast OVC048 75.4 72.5 91% 75 29.85 0.0
10 03:35 SE 3 10.00 Overcast OVC048 75.4 72.3 90% 75 29.85 0.0
10 03:15 SE 3 10.00 Overcast OVC046 75.2 72 90% 75 29.85 0.0
10 02:55 Calm 10.00 Partly Cloudy SCT044 74.7 71.6 90% 29.85 0.0
10 02:35 E 3 10.00 Fair CLR 74.7 71.2 89% 29.86 0.0
10 02:15 Calm 10.00 Fair CLR 75.2 70.5 85% 75 29.85 0.0
10 01:55 SE 3 10.00 Fair CLR 75.6 70.2 83% 76 29.86 0.0
10 01:35 SE 5 10.00 Fair CLR 76.1 69.8 81% 77 29.86 0.0
10 01:15 SE 6 10.00 Fair CLR 76.3 69.4 79% 77 29.86 0.0
10 00:55 SE 5 10.00 Fair CLR 77 69.1 88.7 77 77% 79 29.85 0.0
10 00:35 SE 7 10.00 Fair CLR 77.2 69.1 76% 79 29.85 0.0
10 00:15 SE 6 10.00 Fair CLR 77.4 70 78% 79 29.86 0.0
09 23:55 SE 3 10.00 Fair CLR 77.4 70.7 80% 79 29.86 0.0
09 23:35 SE 3 10.00 Fair CLR 77.9 70.7 79% 80 29.86 0.0
09 23:15 E 3 10.00 Fair CLR 78.3 70.7 78% 81 29.86 0.0
09 22:55 E 3 10.00 Fair CLR 79.5 70.5 74% 83 29.85 0.0
09 22:15 SE 10 G 16 10.00 Fair CLR 81.1 70.7 71% 85 29.84 0.0
09 21:55 SE 5 10.00 Fair CLR 81.5 70.7 70% 85 29.83 0.0
09 21:35 SE 6 10.00 Fair CLR 81.5 69.8 68% 85 29.82 0.0
09 21:15 SE 5 10.00 Fair CLR 82.4 69.4 65% 86 29.81 0.0
09 20:55 SE 3 10.00 Fair CLR 82.9 69.8 65% 87 29.8 0.0
09 20:35 SE 3 10.00 Fair CLR 83.8 69.1 61% 88 29.78 0.0
09 20:15 SE 5 10.00 Fair CLR 85.3 68.9 58% 89 29.78 0.0
09 19:55 SE 6 10.00 Fair CLR 86.5 68.2 54% 90 29.77 0.0
09 19:35 E 7 10.00 Fair CLR 87.3 67.6 52% 91 29.76 0.0
09 19:15 E 6 10.00 Fair CLR 88 67.8 51% 91 29.76 0.0
09 18:55 SE 5 10.00 Fair CLR 88.7 68.4 89.8 81.7 51% 93 29.76 0.0
09 18:35 E 5 10.00 Partly Cloudy SCT048 88.7 68.7 52% 93 29.76 0.0
09 18:15 SE 5 10.00 Partly Cloudy SCT048 88.9 68.5 51% 93 29.76 0.0
09 17:55 E 7 10.00 Partly Cloudy SCT048 88.3 69.3 53% 93 29.76 0.0
09 17:15 SE 3 7.00 Mostly Cloudy BKN044 89.4 68.7 51% 94 29.77 0.0
09 16:55 Calm 10.00 Partly Cloudy SCT042 88.3 69.3 53% 93 29.77 0.0
09 16:35 S 3 10.00 Partly Cloudy SCT042 89.2 68.9 51% 94 29.77 0.0
09 16:15 Calm 10.00 Fair CLR 88.2 68.5 52% 92 29.78 0.0
09 15:55 Calm 10.00 Fair CLR 87.6 68.4 53% 91 29.79 0.0
09 15:35 Calm 10.00 Fair CLR 87.6 69.8 56% 92 29.8 0.0
09 15:15 W 5 10.00 Fair CLR 86.2 68.9 56% 90 29.8 0.0
09 14:55 Calm 10.00 Fair CLR 86.2 68.5 56% 90 29.81 0.0
09 14:35 W 6 10.00 Fair CLR 86 68.9 57% 90 29.82 0.0
09 14:15 W 7 10.00 Fair CLR 84.9 68.4 58% 88 29.83 0.0
09 13:55 Calm 10.00 Partly Cloudy SCT090 83.5 68.2 60% 87 29.84 0.0
09 13:35 Calm 10.00 Mostly Cloudy BKN090 83.3 67.5 59% 86 29.85 0.0
09 13:15 W 5 10.00 Mostly Cloudy BKN090 82 68 63% 85 29.86 0.0
09 12:55 SE 5 10.00 Partly Cloudy SCT090 82 67.8 82 67.5 62% 85 29.87 0.0 0.01
09 12:35 SW 7 10.00 Mostly Cloudy SCT026 BKN090 81.1 67.6 64% 84 29.87 0.0
09 12:15 Calm 10.00 Partly Cloudy SCT024 SCT090 80.2 68.2 67% 83 29.88 0.0
09 11:55 Calm 10.00 Partly Cloudy SCT022 SCT090 79.7 68 68% 82 29.89 0.0
09 11:35 S 6 10.00 Partly Cloudy SCT022 78.3 67.3 69% 80 29.89 0.0
09 11:15 SE 5 10.00 Partly Cloudy SCT022 77.7 66.7 69% 80 29.89 0.0
09 10:55 SE 3 10.00 Fair CLR 76.8 67.1 72% 79 29.89 0.0
09 10:35 SW 3 10.00 Fair CLR 75.2 67.1 76% 76 29.89 0.0
09 10:15 Calm 10.00 Partly Cloudy SCT015 74.1 66.6 77% 29.9 0.0
09 09:55 Calm 10.00 Partly Cloudy SCT011 SCT095 72.7 66.7 82% 29.89 0.0 0.01
09 09:35 NW 3 10.00 Partly Cloudy SCT009 SCT095 71.8 68.2 88% 29.89 0.0
09 09:15 Calm 10.00 Partly Cloudy SCT120 70.2 68.5 95% 29.89 0.0
09 08:55 NW 6 7.00 Light Rain SCT046 SCT065 BKN100 69.8 68.2 95% 29.88 0.0 0.01
09 08:35 NW 3 10.00 Mostly Cloudy SCT050 SCT070 BKN100 69.3 68 96% 29.87 0.0
09 08:15 NW 3 7.00 Overcast OVC090 68.9 67.6 96% 29.88 0.0
09 07:55 W 6 10.00 Overcast OVC090 68.5 66.7 94% 29.86 0.0
09 07:35 Calm 10.00 Overcast BKN090 OVC110 68 66.6 95% 29.83 0.0
09 07:15 SE 3 10.00 Mostly Cloudy SCT065 SCT090 BKN110 67.5 66.6 97% 29.8 0.0
09 06:55 SE 8 10.00 Light Rain SCT027 SCT065 OVC100 67.6 66.7 81.3 67.5 97% 29.8 0.0 0.26 0.83
09 06:35 SE 9 5.00 Light Rain SCT020 BKN050 OVC100 67.6 66.4 96% 29.79 0.0 0.26
09 06:15 SE 13 7.00 Heavy Rain SCT023 SCT042 OVC090 68.9 66.9 93% 29.8 0.0 0.06
09 05:55 E 10 G 16 10.00 Light Rain SCT050 OVC100 68.9 67.3 95% 29.82 0.0 0.01
09 05:35 E 8 10.00 Mostly Cloudy SCT050 SCT060 BKN085 69.1 68 96% 29.82 0.0
09 05:15 E 10 G 17 10.00 Light Drizzle SCT070 BKN095 BKN120 70.5 69.8 98% 29.81 0.0
09 04:55 E 9 10.00 Rain SCT009 SCT022 OVC070 70.7 69.8 97% 29.82 0.0 0.22
09 04:35 NE 13 2.50 Heavy Rain SCT007 BKN028 OVC048 70.7 69.8 97% 29.82 0.0 0.21
09 04:15 NE 9 7.00 Light Rain SCT029 BKN050 OVC070 71.2 70.2 96% 29.82 0.0 0.02
09 03:55 NE 7 2.50 Heavy Rain SCT013 BKN021 OVC042 71.6 69.8 94% 29.81 0.0 0.31 0.31
09 03:35 NE 5 G 17 4.00 Rain SCT008 BKN021 OVC050 72.1 70 93% 29.83 0.0 0.13
09 02:35 SE 7 10.00 Overcast BKN048 BKN055 OVC075 79.2 73.4 83% 83 29.75 0.0
09 02:15 SE 8 10.00 Mostly Cloudy SCT046 BKN055 BKN075 79.7 73.4 81% 84 29.75 0.0
09 01:55 SE 7 10.00 Mostly Cloudy SCT055 BKN075 79.9 73.4 81% 84 29.77 0.0
09 01:35 E 6 10.00 Light Rain SCT026 SCT041 BKN075 80.2 73.4 80% 85 29.78 0.0
09 01:15 SE 8 10.00 Mostly Cloudy SCT025 BKN032 BKN041 81 73.4 78% 86 29.78 0.0
09 00:55 E 6 10.00 Overcast BKN023 OVC029 81.5 73.6 86.2 81.5 77% 87 29.8 0.0
09 00:35 E 7 10.00 Overcast OVC019 81.7 73.9 77% 87 29.8 0.0
09 00:15 E 8 10.00 Overcast BKN019 BKN027 OVC035 81.9 74.3 78% 88 29.79 0.0
08 23:55 E 8 10.00 Light Drizzle SCT025 BKN035 OVC049 82 74.3 77% 88 29.79 0.0
08 23:35 E 7 10.00 Overcast BKN027 OVC035 82.8 73.9 75% 89 29.77 0.0
08 23:15 E 5 10.00 Overcast BKN030 OVC035 83.3 73.4 72% 90 29.78 0.0
08 22:55 E 5 10.00 Overcast BKN030 OVC038 83.3 72.5 70% 89 29.79 0.0
08 22:35 E 5 10.00 Overcast BKN030 OVC038 83.3 72 69% 89 29.78 0.0
08 22:15 E 3 10.00 Overcast OVC035 83.8 70.9 65% 89 29.75 0.0
08 21:55 Calm 10.00 Overcast BKN035 OVC045 84.2 70.9 64% 89 29.76 0.0
08 21:35 SE 3 10.00 Overcast SCT036 OVC045 84.2 70.9 64% 89 29.75 0.0
08 21:15 SE 3 10.00 Overcast BKN036 OVC045 84.4 70.9 64% 89 29.75 0.0
08 20:55 SE 5 10.00 Overcast OVC045 84.4 70.9 64% 89 29.74 0.0
08 20:35 SE 5 10.00 Mostly Cloudy BKN045 84.6 70.9 64% 90 29.74 0.0
08 19:55 SE 6 7.00 Partly Cloudy SCT036 85.1 70.3 61% 90 29.73 0.0
08 19:35 S 6 7.00 Partly Cloudy SCT034 85.3 70.2 61% 90 29.72 0.0
08 19:15 SE 7 7.00 Partly Cloudy SCT035 85.5 70 60% 90 29.72 0.0
08 18:55 SE 7 7.00 Partly Cloudy SCT035 86 69.8 90.3 83.7 59% 91 29.72 0.0
08 18:35 SE 8 7.00 Partly Cloudy SCT035 86.5 70 58% 91 29.71 0.0
08 18:15 SE 7 7.00 Mostly Cloudy BKN035 BKN041 88.9 70.2 54% 94 29.71 0.0
08 17:55 SE 6 7.00 Mostly Cloudy BKN038 87.3 69.6 56% 92 29.71 0.0
08 17:35 SE 10 10.00 Mostly Cloudy BKN040 87.6 69.3 55% 92 29.71 0.0
08 17:15 SE 12 G 17 10.00 Mostly Cloudy BKN040 89.1 69.1 52% 94 29.71 0.0
08 16:55 SE 9 G 17 10.00 Mostly Cloudy BKN040 88.5 69.1 53% 93 29.72 0.0
08 16:35 SE 10 10.00 Mostly Cloudy BKN040 89.2 68.5 51% 93 29.73 0.0
08 16:15 SE 10 G 17 10.00 Mostly Cloudy BKN040 89.1 68.9 51% 93 29.73 0.0
08 15:35 SE 10 10.00 Partly Cloudy SCT038 SCT046 89.1 68.7 51% 93 29.75 0.0
08 14:55 S 8 10.00 Overcast BKN034 OVC044 87.3 69.1 55% 92 29.79 0.0
08 14:35 SE 7 10.00 Overcast SCT034 OVC044 87.1 69.4 56% 92 29.8 0.0
08 14:15 S 8 10.00 Mostly Cloudy SCT032 BKN044 86.2 69.4 57% 91 29.8 0.0
08 13:55 S 6 10.00 Mostly Cloudy BKN032 BKN046 86.7 69.8 57% 91 29.81 0.0
08 13:35 SE 3 10.00 Overcast OVC030 84 69.4 62% 88 29.81 0.0
08 13:15 E 9 10.00 Overcast OVC032 84.6 69.8 61% 89 29.82 0.0
08 12:55 SE 7 10.00 Overcast BKN032 OVC037 85.8 69.4 86.2 70.2 58% 90 29.83 0.0
08 12:15 Calm 10.00 Overcast SCT028 OVC035 84.6 69.4 61% 89 29.85 0.0
08 11:35 Calm 10.00 Overcast BKN028 OVC035 82 68.9 65% 85 29.86 0.0
08 10:55 E 6 10.00 Fair CLR 81.9 69.1 65% 85 29.87 0.0
08 10:15 E 6 7.00 Fair CLR 79.5 68.5 69% 82 29.88 0.0
08 09:55 E 6 7.00 Fair CLR 77.9 68.4 73% 80 29.89 0.0
08 09:35 E 6 7.00 Fair CLR 77 68 74% 79 29.9 0.0
08 09:15 NE 7 7.00 Fair CLR 74.8 67.1 77% 29.9 0.0
08 08:55 NE 6 5.00 Mostly Cloudy with Haze BKN011 73.4 66.4 79% 29.89 0.0
08 08:35 N 5 5.00 Overcast with Haze OVC011 71.8 65.8 82% 29.9 0.0
08 08:15 N 3 5.00 Mostly Cloudy with Haze SCT011 BKN039 71.2 65.5 82% 29.9 0.0
08 07:55 NE 5 5.00 Overcast with Haze BKN011 OVC041 70.7 65.3 83% 29.89 0.0
08 07:35 N 5 5.00 Overcast with Haze OVC011 70.3 65.3 84% 29.9 0.0
08 07:15 Calm 7.00 Overcast OVC013 70.3 65.3 84% 29.9 0.0
08 06:55 NE 5 7.00 Overcast OVC013 70 65.3 71.6 69.3 85% 29.9 0.0
08 06:35 NE 3 7.00 Overcast OVC013 69.8 65.3 86% 29.89 0.0
08 06:15 NE 5 7.00 Overcast OVC011 69.8 65.5 86% 29.89 0.0
08 05:55 N 5 7.00 Overcast OVC011 69.8 65.7 87% 29.89 0.0
08 05:35 NE 3 5.00 Fog/Mist BKN011 BKN026 OVC031 69.3 65.8 89% 29.87 0.0
08 05:15 Calm 5.00 Fog/Mist BKN011 BKN014 OVC025 69.8 65.7 87% 29.89 0.0
08 04:55 Calm 5.00 Overcast with Haze BKN013 OVC024 70 65.3 85% 29.89 0.0
08 04:35 Calm 7.00 Overcast OVC013 70.3 65.3 84% 29.9 0.0
08 04:15 NE 3 7.00 Overcast OVC013 70.7 65.3 83% 29.9 0.0
08 03:55 N 3 7.00 Overcast OVC013 70.7 65.5 84% 29.89 0.0
08 03:35 Calm 7.00 Overcast OVC013 70.7 65.5 84% 29.9 0.0
08 03:15 Calm 7.00 Overcast OVC013 70.9 65.7 84% 29.91 0.0
08 02:35 Calm 7.00 Overcast OVC013 70.9 65.8 84% 29.92 0.0
08 02:15 NE 5 7.00 Overcast OVC013 71.2 66 84% 29.92 0.0
08 01:55 N 3 7.00 Overcast OVC015 71.6 65.7 82% 29.93 0.0
08 01:35 Calm 7.00 Overcast OVC015 71.6 65.7 82% 29.95 0.0
08 01:15 Calm 7.00 Overcast OVC017 71.6 65.7 82% 29.96 0.0
08 00:55 Calm 7.00 Overcast OVC017 71.6 65.7 78.1 71.2 82% 29.97 0.0 0.01
08 00:35 Calm 7.00 Overcast OVC017 71.6 65.7 82% 29.97 0.0
08 00:15 Calm 7.00 Overcast OVC017 71.6 66 83% 29.96 0.0
07 23:55 Calm 7.00 Overcast OVC017 71.6 66.2 83% 29.96 0.0
07 23:35 Calm 7.00 Overcast OVC017 71.4 66 83% 29.95 0.0
07 23:15 N 6 7.00 Overcast OVC017 71.6 66.2 83% 29.91 0.0
07 22:55 N 7 7.00 Overcast OVC017 71.6 66.2 83% 29.92 0.0
07 22:35 NE 7 7.00 Overcast OVC017 71.8 66.4 83% 29.92 0.0
07 22:15 NE 3 7.00 Overcast OVC019 72.5 66.4 81% 29.95 0.0
07 21:55 Calm 7.00 Overcast OVC019 72.1 66.2 82% 29.96 0.0 0.01
07 21:35 Calm 7.00 Partly Cloudy SCT019 72 66 82% 29.93 0.0
07 21:15 NE 6 7.00 Fair CLR 71.8 65.7 81% 29.87 0.0
07 20:55 NE 9 G 18 7.00 Partly Cloudy SCT019 SCT030 71.6 66.4 84% 29.84 0.0 0.01
07 20:35 SE 12 G 18 7.00 Light Rain SCT021 BKN028 BKN032 71.8 67.1 85% 29.86 0.0 0.01
07 20:15 E 10 7.00 Rain OVC023 73.2 67.5 82% 29.9 0.0
07 19:55 E 7 7.00 Light Rain OVC023 75.6 65.8 72% 77 29.92 0.0
07 19:35 N 6 7.00 Mostly Cloudy BKN025 BKN035 77 64.6 66% 79 29.92 0.0
07 19:15 E 10 7.00 Mostly Cloudy BKN025 BKN031 77.7 65.1 65% 80 29.88 0.0
07 18:55 E 12 7.00 Overcast OVC027 78.3 65.3 84.2 78.3 65% 80 29.88 0.0
07 18:35 E 7 7.00 Mostly Cloudy BKN027 78.8 65.7 64% 81 29.89 0.0
07 18:15 NE 9 G 17 7.00 Mostly Cloudy BKN027 79.5 65.7 63% 81 29.86 0.0
07 17:55 NE 10 G 17 7.00 Mostly Cloudy BKN027 80.2 66.2 62% 82 29.88 0.0
07 17:35 E 9 7.00 Partly Cloudy SCT025 82 66 58% 84 29.87 0.0
07 17:15 E 9 7.00 Partly Cloudy SCT024 82.2 66.4 59% 85 29.87 0.0
07 16:55 E 9 7.00 Mostly Cloudy BKN024 BKN030 82.6 66.2 58% 85 29.88 0.0
07 16:35 NE 10 G 17 10.00 Overcast BKN024 OVC029 82.6 66.2 58% 85 29.88 0.0
07 16:15 E 9 7.00 Mostly Cloudy BKN026 BKN031 82 66.4 59% 84 29.89 0.0
07 15:55 NE 10 7.00 Overcast OVC028 82.2 66.4 59% 85 29.89 0.0
07 15:35 E 10 7.00 Overcast BKN025 OVC029 82.9 66.7 58% 85 29.9 0.0
07 15:15 E 9 7.00 Overcast OVC025 82.4 66.9 60% 85 29.9 0.0
07 14:55 E 10 7.00 Overcast OVC023 82.6 67.1 60% 85 29.9 0.0
07 14:35 E 9 7.00 Overcast OVC019 81.7 67.3 62% 84 29.92 0.0
07 14:15 E 13 G 18 7.00 Overcast OVC019 81.3 66.9 62% 84 29.92 0.0
07 13:55 E 12 7.00 Overcast OVC021 81.5 67.3 62% 84 29.92 0.0
07 13:35 E 10 7.00 Overcast OVC021 83.1 67.8 60% 86 29.93 0.0
07 13:15 E 8 7.00 Overcast OVC021 82.4 68 62% 85 29.94 0.0
07 12:55 E 9 7.00 Overcast OVC021 82.4 68.2 83.1 75.2 62% 85 29.95 0.0
07 12:35 E 8 7.00 Overcast OVC021 82 68.2 63% 85 29.95 0.0
Date Time (cdt) Wind (mph) Vis. (mi.) Weather Sky Cond. Air Dwpt Max. Min. Relative Humidity Wind Chill (°F) Heat Index (°F) altimeter (in) sea level (mb) 1 hr 3 hr 6 hr
6 hour
Temperature (ºF) Pressure Precipitation (in)